Meridien — FT2092 — position and weather

sailwx.info

Track history (hours):
 
Tides and Currents Weather Stations Pressure Air Temp Water Temp Dewpoint Dewpoint Depression Visibility Wind Speed Wind Dir Waves Ship Positions

Meridien

Last reported at 2014-Nov-27 16:28 UTC. Time now 2014-Nov-29 02:31 UTC.
Position N 43°24' E 004°60'.

Length 21 m.

MMSI: 227321780.

Date/timePositionNaut miles runAvg speedWind from/ knotsBaromVisibWave heightAir tempDewpointWater temp
2014-Nov-27 16:28N 43°24' E 004°60'0 0.0
2014-Nov-27 15:33N 43°24' E 004°60'0 0.0
2014-Nov-27 14:33N 43°24' E 004°60'0 0.0
2014-Nov-27 13:33N 43°24' E 004°60'0 0.0
2014-Nov-27 12:33N 43°24' E 004°60'6 5.3
2014-Nov-27 11:28N 43°20' E 004°55'3 3.6
2014-Nov-27 10:31N 43°19' E 004°60'5 0.2
2014-Nov-26 13:27N 43°24' E 004°60'5 2.2
2014-Nov-26 11:12N 43°20' E 004°56'2 0.2
2014-Nov-26 03:14N 43°19' E 004°55'6 0.5
2014-Nov-25 16:06N 43°24' E 004°59'0 0.7
2014-Nov-25 15:33N 43°24' E 004°60'0 0.0
2014-Nov-25 14:34N 43°24' E 004°60'0 0.0
2014-Nov-25 13:33N 43°24' E 004°60'5 5.0
2014-Nov-25 12:32N 43°20' E 004°56'1 0.1
2014-Nov-25 03:20N 43°19' E 004°55'6 0.5
2014-Nov-24 14:22N 43°24' E 004°60'7 1.1
2014-Nov-24 08:24N 43°19' E 004°54'3 3.0
2014-Nov-24 07:33N 43°20' E 004°57'  
2014-Nov-21 06:33N 43°22' E 004°59'3 0.2
2014-Nov-20 16:17N 43°24' E 004°60'0 0.0
2014-Nov-20 15:33N 43°24' E 004°60'0 0.0
2014-Nov-20 14:33N 43°24' E 004°60'0 0.0
2014-Nov-20 13:33N 43°24' E 004°60'4 4.1
2014-Nov-20 12:31N 43°20' E 004°59'4 0.2
2014-Nov-19 16:34N 43°24' E 004°59'0 0.5
2014-Nov-19 15:33N 43°24' E 004°60'0 0.0
2014-Nov-19 14:34N 43°24' E 004°60'1 0.8
2014-Nov-19 13:34N 43°24' E 004°59'4 3.6
2014-Nov-19 12:33N 43°20' E 004°59'4 0.5
2014-Nov-19 04:08N 43°16' E 004°56'2 3.4
2014-Nov-19 03:29N 43°18' E 004°54'7 4.6
2014-Nov-19 02:03N 43°24' E 004°59'1 0.1
2014-Nov-18 16:31N 43°24' E 004°60'0 0.0
2014-Nov-18 15:33N 43°24' E 004°60'0 0.0
2014-Nov-18 14:33N 43°24' E 004°60'0 0.0
2014-Nov-18 13:33N 43°24' E 004°60'4 4.3
2014-Nov-18 12:32N 43°20' E 004°58'3 3.4
2014-Nov-18 11:32N 43°18' E 004°55'5 0.5
2014-Nov-18 02:14N 43°22' E 004°56'  
Track history (hours):
 
Tides and Currents Weather Stations Pressure Air Temp Water Temp Dewpoint Dewpoint Depression Visibility Wind Speed Wind Dir Waves Ship Positions

Meridien

Last reported at 2014-Nov-27 16:28 UTC. Time now 2014-Nov-29 02:31 UTC.
Position N 43°24' E 004°60'.

Length 21 m.

MMSI: 227321780.

Date/timePositionNaut miles runAvg speedWind from/ knotsBaromVisibWave heightAir tempDewpointWater temp
2014-Nov-27 16:28N 43°24' E 004°60'0 0.0
2014-Nov-27 15:33N 43°24' E 004°60'0 0.0
2014-Nov-27 14:33N 43°24' E 004°60'0 0.0
2014-Nov-27 13:33N 43°24' E 004°60'0 0.0
2014-Nov-27 12:33N 43°24' E 004°60'6 5.3
2014-Nov-27 11:28N 43°20' E 004°55'3 3.6
2014-Nov-27 10:31N 43°19' E 004°60'5 0.2
2014-Nov-26 13:27N 43°24' E 004°60'5 2.2
2014-Nov-26 11:12N 43°20' E 004°56'2 0.2
2014-Nov-26 03:14N 43°19' E 004°55'6 0.5
2014-Nov-25 16:06N 43°24' E 004°59'0 0.7
2014-Nov-25 15:33N 43°24' E 004°60'0 0.0
2014-Nov-25 14:34N 43°24' E 004°60'0 0.0
2014-Nov-25 13:33N 43°24' E 004°60'5 5.0
2014-Nov-25 12:32N 43°20' E 004°56'1 0.1
2014-Nov-25 03:20N 43°19' E 004°55'6 0.5
2014-Nov-24 14:22N 43°24' E 004°60'7 1.1
2014-Nov-24 08:24N 43°19' E 004°54'3 3.0
2014-Nov-24 07:33N 43°20' E 004°57'  
2014-Nov-21 06:33N 43°22' E 004°59'3 0.2
2014-Nov-20 16:17N 43°24' E 004°60'0 0.0
2014-Nov-20 15:33N 43°24' E 004°60'0 0.0
2014-Nov-20 14:33N 43°24' E 004°60'0 0.0
2014-Nov-20 13:33N 43°24' E 004°60'4 4.1
2014-Nov-20 12:31N 43°20' E 004°59'4 0.2
2014-Nov-19 16:34N 43°24' E 004°59'0 0.5
2014-Nov-19 15:33N 43°24' E 004°60'0 0.0
2014-Nov-19 14:34N 43°24' E 004°60'1 0.8
2014-Nov-19 13:34N 43°24' E 004°59'4 3.6
2014-Nov-19 12:33N 43°20' E 004°59'4 0.5
2014-Nov-19 04:08N 43°16' E 004°56'2 3.4
2014-Nov-19 03:29N 43°18' E 004°54'7 4.6
2014-Nov-19 02:03N 43°24' E 004°59'1 0.1
2014-Nov-18 16:31N 43°24' E 004°60'0 0.0
2014-Nov-18 15:33N 43°24' E 004°60'0 0.0
2014-Nov-18 14:33N 43°24' E 004°60'0 0.0
2014-Nov-18 13:33N 43°24' E 004°60'4 4.3
2014-Nov-18 12:32N 43°20' E 004°58'3 3.4
2014-Nov-18 11:32N 43°18' E 004°55'5 0.5
2014-Nov-18 02:14N 43°22' E 004°56'  

Dump ship's entire track history